Omaha, Nebraska
Current Conditions -  °F | °C
As of 1:52 AM on Friday 24 Oct 2014 (Local Time) from KOMA Reporting Station
Scattered Clouds Scattered Clouds  
Wind Chill: 55°   Ceiling: Unl
Heat Index: 55°   Visibility: 10mi
Dew Point: 50°   Wind: 10mph
Humidity: 83%   Direction: 150°SSE
Pressure: 30"   Gusts: NA
Location:  41.26°N, 95.94°W
Report Text: KOMA 240652Z 15009KT 10SM SCT250 13/10 A3000 RMK AO2 SLP155 T01280100
Loading
Personal Weather Stations






























Interactive Weather Map New forecast layout! Learn more

10-Day Weather Forecast

Advertisements
Track Severe Weather on mobile